sensor_id;sensor_type;location;lat;lon;timestamp;temperature;humidity
32698;DHT22;19087;51.062;3.754;2023-02-19T00:01:32;12.00;99.90
32698;DHT22;19087;51.062;3.754;2023-02-19T00:04:01;12.10;99.90
32698;DHT22;19087;51.062;3.754;2023-02-19T00:06:31;12.00;99.90
32698;DHT22;19087;51.062;3.754;2023-02-19T00:08:58;12.00;99.90
32698;DHT22;19087;51.062;3.754;2023-02-19T00:11:28;12.10;99.90
32698;DHT22;19087;51.062;3.754;2023-02-19T00:13:55;12.20;99.90
32698;DHT22;19087;51.062;3.754;2023-02-19T00:16:26;12.20;99.90
32698;DHT22;19087;51.062;3.754;2023-02-19T00:18:53;12.30;99.90
32698;DHT22;19087;51.062;3.754;2023-02-19T00:21:19;12.30;99.90
32698;DHT22;19087;51.062;3.754;2023-02-19T00:23:53;12.20;99.90
32698;DHT22;19087;51.062;3.754;2023-02-19T00:26:19;12.10;99.90
32698;DHT22;19087;51.062;3.754;2023-02-19T00:28:46;12.20;99.90
32698;DHT22;19087;51.062;3.754;2023-02-19T00:31:18;12.20;99.90
32698;DHT22;19087;51.062;3.754;2023-02-19T00:33:47;12.20;99.90
32698;DHT22;19087;51.062;3.754;2023-02-19T00:36:14;12.00;99.90
32698;DHT22;19087;51.062;3.754;2023-02-19T00:38:40;12.10;99.90
32698;DHT22;19087;51.062;3.754;2023-02-19T00:41:07;12.00;99.90
32698;DHT22;19087;51.062;3.754;2023-02-19T00:46:19;12.00;99.90
32698;DHT22;19087;51.062;3.754;2023-02-19T00:48:45;11.90;99.90
32698;DHT22;19087;51.062;3.754;2023-02-19T00:51:11;11.90;99.90
32698;DHT22;19087;51.062;3.754;2023-02-19T00:53:39;12.00;99.90
32698;DHT22;19087;51.062;3.754;2023-02-19T00:56:05;11.90;99.90
32698;DHT22;19087;51.062;3.754;2023-02-19T00:58:31;12.10;99.90
32698;DHT22;19087;51.062;3.754;2023-02-19T01:00:57;12.20;99.90
32698;DHT22;19087;51.062;3.754;2023-02-19T01:03:23;12.10;99.90
32698;DHT22;19087;51.062;3.754;2023-02-19T01:05:50;11.90;99.90
32698;DHT22;19087;51.062;3.754;2023-02-19T01:08:15;11.80;99.90
32698;DHT22;19087;51.062;3.754;2023-02-19T01:10:41;11.80;99.90
32698;DHT22;19087;51.062;3.754;2023-02-19T01:13:07;11.90;99.90
32698;DHT22;19087;51.062;3.754;2023-02-19T01:15:33;11.90;99.90
32698;DHT22;19087;51.062;3.754;2023-02-19T01:17:59;12.10;99.90
32698;DHT22;19087;51.062;3.754;2023-02-19T01:20:26;12.00;99.90
32698;DHT22;19087;51.062;3.754;2023-02-19T01:22:57;12.10;99.90
32698;DHT22;19087;51.062;3.754;2023-02-19T01:25:30;12.00;99.90
32698;DHT22;19087;51.062;3.754;2023-02-19T01:27:59;11.90;99.90
32698;DHT22;19087;51.062;3.754;2023-02-19T01:30:25;12.00;99.90
32698;DHT22;19087;51.062;3.754;2023-02-19T01:32:52;12.10;99.90
32698;DHT22;19087;51.062;3.754;2023-02-19T01:35:17;12.10;99.90
32698;DHT22;19087;51.062;3.754;2023-02-19T01:37:43;12.10;99.90
32698;DHT22;19087;51.062;3.754;2023-02-19T01:40:09;12.10;99.90
32698;DHT22;19087;51.062;3.754;2023-02-19T01:42:34;12.10;99.90
32698;DHT22;19087;51.062;3.754;2023-02-19T01:45:30;12.10;99.90
32698;DHT22;19087;51.062;3.754;2023-02-19T01:48:22;12.10;99.90
32698;DHT22;19087;51.062;3.754;2023-02-19T01:51:16;12.00;99.90
32698;DHT22;19087;51.062;3.754;2023-02-19T01:53:54;12.00;99.90
32698;DHT22;19087;51.062;3.754;2023-02-19T01:56:22;12.00;99.90
32698;DHT22;19087;51.062;3.754;2023-02-19T01:58:50;12.00;99.90
32698;DHT22;19087;51.062;3.754;2023-02-19T02:01:17;12.00;99.90
32698;DHT22;19087;51.062;3.754;2023-02-19T02:03:46;12.00;99.90
32698;DHT22;19087;51.062;3.754;2023-02-19T02:06:19;12.10;99.90
32698;DHT22;19087;51.062;3.754;2023-02-19T02:08:47;12.20;99.90
32698;DHT22;19087;51.062;3.754;2023-02-19T02:11:31;12.20;99.90
32698;DHT22;19087;51.062;3.754;2023-02-19T02:13:57;12.00;99.90
32698;DHT22;19087;51.062;3.754;2023-02-19T02:16:42;12.10;99.90
32698;DHT22;19087;51.062;3.754;2023-02-19T02:19:29;12.10;99.90
32698;DHT22;19087;51.062;3.754;2023-02-19T02:22:05;12.00;99.90
32698;DHT22;19087;51.062;3.754;2023-02-19T02:25:17;12.00;99.90
32698;DHT22;19087;51.062;3.754;2023-02-19T02:33:31;12.10;99.90
32698;DHT22;19087;51.062;3.754;2023-02-19T02:36:12;12.00;99.90
32698;DHT22;19087;51.062;3.754;2023-02-19T02:38:43;11.90;99.90
32698;DHT22;19087;51.062;3.754;2023-02-19T02:41:11;11.80;99.90
32698;DHT22;19087;51.062;3.754;2023-02-19T02:43:37;11.70;99.90
32698;DHT22;19087;51.062;3.754;2023-02-19T02:46:05;11.80;99.90
32698;DHT22;19087;51.062;3.754;2023-02-19T02:48:52;11.70;99.90
32698;DHT22;19087;51.062;3.754;2023-02-19T02:51:31;11.80;99.90
32698;DHT22;19087;51.062;3.754;2023-02-19T02:54:06;11.90;99.90
32698;DHT22;19087;51.062;3.754;2023-02-19T02:56:51;11.90;99.90
32698;DHT22;19087;51.062;3.754;2023-02-19T02:59:22;11.90;99.90
32698;DHT22;19087;51.062;3.754;2023-02-19T03:04:55;11.90;99.90
32698;DHT22;19087;51.062;3.754;2023-02-19T03:10:11;11.90;99.90
32698;DHT22;19087;51.062;3.754;2023-02-19T03:12:39;11.90;99.90
32698;DHT22;19087;51.062;3.754;2023-02-19T03:15:27;11.90;99.90
32698;DHT22;19087;51.062;3.754;2023-02-19T03:18:33;12.00;99.90
32698;DHT22;19087;51.062;3.754;2023-02-19T03:21:20;11.90;99.90
32698;DHT22;19087;51.062;3.754;2023-02-19T03:23:47;11.90;99.90
32698;DHT22;19087;51.062;3.754;2023-02-19T03:26:33;11.80;99.90
32698;DHT22;19087;51.062;3.754;2023-02-19T03:29:00;11.70;99.90
32698;DHT22;19087;51.062;3.754;2023-02-19T03:31:50;11.90;99.90
32698;DHT22;19087;51.062;3.754;2023-02-19T03:34:43;11.80;99.90
32698;DHT22;19087;51.062;3.754;2023-02-19T03:37:30;11.80;99.90
32698;DHT22;19087;51.062;3.754;2023-02-19T03:39:57;11.90;99.90
32698;DHT22;19087;51.062;3.754;2023-02-19T03:56:19;11.80;99.90
32698;DHT22;19087;51.062;3.754;2023-02-19T03:59:00;11.70;99.90
32698;DHT22;19087;51.062;3.754;2023-02-19T04:01:52;11.70;99.90
32698;DHT22;19087;51.062;3.754;2023-02-19T04:04:40;11.70;99.90
32698;DHT22;19087;51.062;3.754;2023-02-19T04:07:08;11.80;99.90
32698;DHT22;19087;51.062;3.754;2023-02-19T04:09:36;11.90;99.90
32698;DHT22;19087;51.062;3.754;2023-02-19T04:12:05;12.00;99.90
32698;DHT22;19087;51.062;3.754;2023-02-19T04:14:38;11.90;99.90
32698;DHT22;19087;51.062;3.754;2023-02-19T04:17:12;11.80;99.90
32698;DHT22;19087;51.062;3.754;2023-02-19T04:19:42;11.70;99.90
32698;DHT22;19087;51.062;3.754;2023-02-19T04:22:09;11.80;99.90
32698;DHT22;19087;51.062;3.754;2023-02-19T04:24:45;11.70;99.90
32698;DHT22;19087;51.062;3.754;2023-02-19T04:27:18;11.80;99.90
32698;DHT22;19087;51.062;3.754;2023-02-19T04:29:44;11.90;99.90
32698;DHT22;19087;51.062;3.754;2023-02-19T04:32:10;11.90;99.90
32698;DHT22;19087;51.062;3.754;2023-02-19T04:34:36;11.90;99.90
32698;DHT22;19087;51.062;3.754;2023-02-19T04:37:03;11.90;99.90
32698;DHT22;19087;51.062;3.754;2023-02-19T04:39:29;12.00;99.90
32698;DHT22;19087;51.062;3.754;2023-02-19T04:41:55;12.00;99.90
32698;DHT22;19087;51.062;3.754;2023-02-19T04:44:20;11.90;99.90
32698;DHT22;19087;51.062;3.754;2023-02-19T04:46:48;11.90;99.90
32698;DHT22;19087;51.062;3.754;2023-02-19T04:49:13;12.00;99.90
32698;DHT22;19087;51.062;3.754;2023-02-19T04:51:39;11.90;99.90
32698;DHT22;19087;51.062;3.754;2023-02-19T04:54:06;12.10;99.90
32698;DHT22;19087;51.062;3.754;2023-02-19T04:56:34;12.00;99.90
32698;DHT22;19087;51.062;3.754;2023-02-19T04:59:00;12.00;99.90
32698;DHT22;19087;51.062;3.754;2023-02-19T05:01:26;11.90;99.90
32698;DHT22;19087;51.062;3.754;2023-02-19T05:03:52;12.10;99.90
32698;DHT22;19087;51.062;3.754;2023-02-19T05:06:18;12.10;99.90
32698;DHT22;19087;51.062;3.754;2023-02-19T05:08:44;12.10;99.90
32698;DHT22;19087;51.062;3.754;2023-02-19T05:11:10;12.00;99.90
32698;DHT22;19087;51.062;3.754;2023-02-19T05:13:37;11.80;99.90
32698;DHT22;19087;51.062;3.754;2023-02-19T05:16:06;11.90;99.90
32698;DHT22;19087;51.062;3.754;2023-02-19T05:18:32;11.90;99.90
32698;DHT22;19087;51.062;3.754;2023-02-19T05:20:59;11.80;99.90
32698;DHT22;19087;51.062;3.754;2023-02-19T05:23:26;11.80;99.90
32698;DHT22;19087;51.062;3.754;2023-02-19T05:25:53;11.90;99.90
32698;DHT22;19087;51.062;3.754;2023-02-19T05:28:20;11.90;99.90
32698;DHT22;19087;51.062;3.754;2023-02-19T05:30:55;11.80;99.90
32698;DHT22;19087;51.062;3.754;2023-02-19T05:33:24;11.80;99.90
32698;DHT22;19087;51.062;3.754;2023-02-19T05:35:52;12.00;99.90
32698;DHT22;19087;51.062;3.754;2023-02-19T05:38:21;12.00;99.90
32698;DHT22;19087;51.062;3.754;2023-02-19T05:40:48;11.90;99.90
32698;DHT22;19087;51.062;3.754;2023-02-19T05:43:14;11.90;99.90
32698;DHT22;19087;51.062;3.754;2023-02-19T05:45:40;11.90;99.90
32698;DHT22;19087;51.062;3.754;2023-02-19T05:48:06;12.00;99.90
32698;DHT22;19087;51.062;3.754;2023-02-19T05:50:35;12.00;99.90
32698;DHT22;19087;51.062;3.754;2023-02-19T05:53:02;12.10;99.90
32698;DHT22;19087;51.062;3.754;2023-02-19T05:55:29;12.00;99.90
32698;DHT22;19087;51.062;3.754;2023-02-19T05:57:55;12.00;99.90
32698;DHT22;19087;51.062;3.754;2023-02-19T06:00:21;12.00;99.90
32698;DHT22;19087;51.062;3.754;2023-02-19T06:02:47;11.90;99.90
32698;DHT22;19087;51.062;3.754;2023-02-19T06:05:13;12.00;99.90
32698;DHT22;19087;51.062;3.754;2023-02-19T06:07:39;12.00;99.90
32698;DHT22;19087;51.062;3.754;2023-02-19T06:10:09;12.00;99.90
32698;DHT22;19087;51.062;3.754;2023-02-19T06:12:35;11.90;99.90
32698;DHT22;19087;51.062;3.754;2023-02-19T06:15:01;11.90;99.90
32698;DHT22;19087;51.062;3.754;2023-02-19T06:17:29;11.90;99.90
32698;DHT22;19087;51.062;3.754;2023-02-19T06:19:54;11.90;99.90
32698;DHT22;19087;51.062;3.754;2023-02-19T06:22:20;12.00;99.90
32698;DHT22;19087;51.062;3.754;2023-02-19T06:24:46;11.90;99.90
32698;DHT22;19087;51.062;3.754;2023-02-19T06:27:12;11.90;99.90
32698;DHT22;19087;51.062;3.754;2023-02-19T06:29:38;11.90;99.90
32698;DHT22;19087;51.062;3.754;2023-02-19T06:32:04;12.00;99.90
32698;DHT22;19087;51.062;3.754;2023-02-19T06:34:33;11.90;99.90
32698;DHT22;19087;51.062;3.754;2023-02-19T06:37:00;11.90;99.90
32698;DHT22;19087;51.062;3.754;2023-02-19T06:39:26;11.80;99.90
32698;DHT22;19087;51.062;3.754;2023-02-19T06:41:56;11.80;99.90
32698;DHT22;19087;51.062;3.754;2023-02-19T06:44:24;11.80;99.90
32698;DHT22;19087;51.062;3.754;2023-02-19T06:46:50;11.80;99.90
32698;DHT22;19087;51.062;3.754;2023-02-19T06:49:17;11.80;99.90
32698;DHT22;19087;51.062;3.754;2023-02-19T06:51:42;11.80;99.90
32698;DHT22;19087;51.062;3.754;2023-02-19T06:54:08;11.70;99.90
32698;DHT22;19087;51.062;3.754;2023-02-19T06:56:36;11.90;99.90
32698;DHT22;19087;51.062;3.754;2023-02-19T06:59:06;11.80;99.90
32698;DHT22;19087;51.062;3.754;2023-02-19T07:01:34;12.00;99.90
32698;DHT22;19087;51.062;3.754;2023-02-19T07:04:00;11.90;99.90
32698;DHT22;19087;51.062;3.754;2023-02-19T07:06:28;11.90;99.90
32698;DHT22;19087;51.062;3.754;2023-02-19T07:08:56;11.90;99.90
32698;DHT22;19087;51.062;3.754;2023-02-19T07:11:22;11.90;99.90
32698;DHT22;19087;51.062;3.754;2023-02-19T07:13:53;11.90;99.90
32698;DHT22;19087;51.062;3.754;2023-02-19T07:16:19;12.00;99.90
32698;DHT22;19087;51.062;3.754;2023-02-19T07:18:45;12.00;99.90
32698;DHT22;19087;51.062;3.754;2023-02-19T07:21:12;12.00;99.90
32698;DHT22;19087;51.062;3.754;2023-02-19T07:23:40;12.00;99.90
32698;DHT22;19087;51.062;3.754;2023-02-19T07:26:12;12.00;99.90
32698;DHT22;19087;51.062;3.754;2023-02-19T07:28:39;12.00;99.90
32698;DHT22;19087;51.062;3.754;2023-02-19T07:31:05;12.00;99.90
32698;DHT22;19087;51.062;3.754;2023-02-19T07:33:31;12.00;99.90
32698;DHT22;19087;51.062;3.754;2023-02-19T07:35:56;12.00;99.90
32698;DHT22;19087;51.062;3.754;2023-02-19T07:38:23;12.00;99.90
32698;DHT22;19087;51.062;3.754;2023-02-19T07:40:54;12.00;99.90
32698;DHT22;19087;51.062;3.754;2023-02-19T07:43:20;11.90;99.90
32698;DHT22;19087;51.062;3.754;2023-02-19T07:45:46;11.90;99.90
32698;DHT22;19087;51.062;3.754;2023-02-19T07:48:14;12.00;99.90
32698;DHT22;19087;51.062;3.754;2023-02-19T07:50:39;12.10;99.90
32698;DHT22;19087;51.062;3.754;2023-02-19T07:53:06;12.00;99.90
32698;DHT22;19087;51.062;3.754;2023-02-19T07:55:33;12.10;99.90
32698;DHT22;19087;51.062;3.754;2023-02-19T07:58:01;12.10;99.90
32698;DHT22;19087;51.062;3.754;2023-02-19T08:00:27;12.10;99.90
32698;DHT22;19087;51.062;3.754;2023-02-19T08:02:52;12.10;99.90
32698;DHT22;19087;51.062;3.754;2023-02-19T08:05:25;12.00;99.90
32698;DHT22;19087;51.062;3.754;2023-02-19T08:07:51;12.00;99.90
32698;DHT22;19087;51.062;3.754;2023-02-19T08:10:17;12.10;99.90
32698;DHT22;19087;51.062;3.754;2023-02-19T08:13:03;12.20;99.90
32698;DHT22;19087;51.062;3.754;2023-02-19T08:15:49;12.20;99.90
32698;DHT22;19087;51.062;3.754;2023-02-19T08:18:16;12.10;99.90
32698;DHT22;19087;51.062;3.754;2023-02-19T08:20:42;12.20;99.90
32698;DHT22;19087;51.062;3.754;2023-02-19T08:23:09;12.30;99.90
32698;DHT22;19087;51.062;3.754;2023-02-19T08:25:37;12.30;99.90
32698;DHT22;19087;51.062;3.754;2023-02-19T08:28:03;12.30;99.90
32698;DHT22;19087;51.062;3.754;2023-02-19T08:30:31;12.40;99.90
32698;DHT22;19087;51.062;3.754;2023-02-19T08:32:58;12.40;99.90
32698;DHT22;19087;51.062;3.754;2023-02-19T08:35:24;12.40;99.90
32698;DHT22;19087;51.062;3.754;2023-02-19T08:37:50;12.50;99.90
32698;DHT22;19087;51.062;3.754;2023-02-19T08:40:16;12.70;99.90
32698;DHT22;19087;51.062;3.754;2023-02-19T08:42:43;12.60;99.90
32698;DHT22;19087;51.062;3.754;2023-02-19T08:45:08;12.70;99.90
32698;DHT22;19087;51.062;3.754;2023-02-19T08:47:35;12.60;99.90
32698;DHT22;19087;51.062;3.754;2023-02-19T08:50:01;12.50;99.90
32698;DHT22;19087;51.062;3.754;2023-02-19T08:52:29;12.60;99.90
32698;DHT22;19087;51.062;3.754;2023-02-19T08:54:55;12.90;99.90
32698;DHT22;19087;51.062;3.754;2023-02-19T08:57:21;12.80;99.90
32698;DHT22;19087;51.062;3.754;2023-02-19T08:59:46;13.00;99.90
32698;DHT22;19087;51.062;3.754;2023-02-19T09:02:12;13.00;99.90
32698;DHT22;19087;51.062;3.754;2023-02-19T09:04:38;13.00;99.90
32698;DHT22;19087;51.062;3.754;2023-02-19T09:07:04;12.90;99.90
32698;DHT22;19087;51.062;3.754;2023-02-19T09:09:39;12.90;99.90
32698;DHT22;19087;51.062;3.754;2023-02-19T09:12:06;13.00;99.90
32698;DHT22;19087;51.062;3.754;2023-02-19T09:14:33;13.10;99.90
32698;DHT22;19087;51.062;3.754;2023-02-19T09:17:03;13.10;99.90
32698;DHT22;19087;51.062;3.754;2023-02-19T09:19:30;13.10;99.90
32698;DHT22;19087;51.062;3.754;2023-02-19T09:21:56;13.20;99.90
32698;DHT22;19087;51.062;3.754;2023-02-19T09:24:22;12.80;99.90
32698;DHT22;19087;51.062;3.754;2023-02-19T09:26:50;12.90;99.90
32698;DHT22;19087;51.062;3.754;2023-02-19T09:29:15;13.10;99.90
32698;DHT22;19087;51.062;3.754;2023-02-19T09:31:41;13.10;99.90
32698;DHT22;19087;51.062;3.754;2023-02-19T09:34:07;13.10;99.90
32698;DHT22;19087;51.062;3.754;2023-02-19T09:36:33;13.20;99.90
32698;DHT22;19087;51.062;3.754;2023-02-19T09:39:00;13.30;99.90
32698;DHT22;19087;51.062;3.754;2023-02-19T09:41:38;13.50;99.90
32698;DHT22;19087;51.062;3.754;2023-02-19T09:44:12;13.70;99.90
32698;DHT22;19087;51.062;3.754;2023-02-19T09:46:47;13.60;99.90
32698;DHT22;19087;51.062;3.754;2023-02-19T09:49:35;13.50;99.90
32698;DHT22;19087;51.062;3.754;2023-02-19T09:52:17;13.50;99.90
32698;DHT22;19087;51.062;3.754;2023-02-19T09:54:44;13.60;99.90
32698;DHT22;19087;51.062;3.754;2023-02-19T09:57:16;13.80;99.90
32698;DHT22;19087;51.062;3.754;2023-02-19T09:59:47;13.80;99.90
32698;DHT22;19087;51.062;3.754;2023-02-19T10:02:20;13.70;99.90
32698;DHT22;19087;51.062;3.754;2023-02-19T10:04:46;13.60;99.90
32698;DHT22;19087;51.062;3.754;2023-02-19T10:07:15;13.60;99.90
32698;DHT22;19087;51.062;3.754;2023-02-19T10:09:43;13.40;99.90
32698;DHT22;19087;51.062;3.754;2023-02-19T10:12:15;13.40;99.90
32698;DHT22;19087;51.062;3.754;2023-02-19T10:14:49;13.40;99.90
32698;DHT22;19087;51.062;3.754;2023-02-19T10:17:33;13.40;99.90
32698;DHT22;19087;51.062;3.754;2023-02-19T10:20:00;13.30;99.90
32698;DHT22;19087;51.062;3.754;2023-02-19T10:22:35;13.30;99.90
32698;DHT22;19087;51.062;3.754;2023-02-19T10:25:03;13.30;99.90
32698;DHT22;19087;51.062;3.754;2023-02-19T10:27:29;13.20;99.90
32698;DHT22;19087;51.062;3.754;2023-02-19T10:30:01;13.20;99.90
32698;DHT22;19087;51.062;3.754;2023-02-19T10:32:27;13.20;99.90
32698;DHT22;19087;51.062;3.754;2023-02-19T10:35:09;13.30;99.90
32698;DHT22;19087;51.062;3.754;2023-02-19T10:37:48;13.20;99.90
32698;DHT22;19087;51.062;3.754;2023-02-19T10:40:19;13.30;99.90
32698;DHT22;19087;51.062;3.754;2023-02-19T10:42:49;13.30;99.90
32698;DHT22;19087;51.062;3.754;2023-02-19T10:45:20;13.40;99.90
32698;DHT22;19087;51.062;3.754;2023-02-19T10:47:49;13.50;99.90
32698;DHT22;19087;51.062;3.754;2023-02-19T10:50:30;13.50;99.90
32698;DHT22;19087;51.062;3.754;2023-02-19T10:52:58;13.50;99.90
32698;DHT22;19087;51.062;3.754;2023-02-19T10:55:31;13.50;99.90
32698;DHT22;19087;51.062;3.754;2023-02-19T10:57:57;13.20;99.90
32698;DHT22;19087;51.062;3.754;2023-02-19T11:00:40;13.30;99.90
32698;DHT22;19087;51.062;3.754;2023-02-19T11:03:33;13.50;99.90
32698;DHT22;19087;51.062;3.754;2023-02-19T11:06:04;13.60;99.90
32698;DHT22;19087;51.062;3.754;2023-02-19T11:08:57;13.40;99.90
32698;DHT22;19087;51.062;3.754;2023-02-19T11:11:33;13.30;99.90
32698;DHT22;19087;51.062;3.754;2023-02-19T11:14:12;13.30;99.90
32698;DHT22;19087;51.062;3.754;2023-02-19T11:16:50;13.30;99.90
32698;DHT22;19087;51.062;3.754;2023-02-19T11:19:33;13.20;99.90
32698;DHT22;19087;51.062;3.754;2023-02-19T11:30:45;12.80;99.90
32698;DHT22;19087;51.062;3.754;2023-02-19T11:35:57;13.00;99.90
32698;DHT22;19087;51.062;3.754;2023-02-19T11:38:24;13.20;99.90
32698;DHT22;19087;51.062;3.754;2023-02-19T11:55:32;13.70;99.90
32698;DHT22;19087;51.062;3.754;2023-02-19T12:03:52;13.40;99.90
32698;DHT22;19087;51.062;3.754;2023-02-19T12:06:27;13.40;99.90
32698;DHT22;19087;51.062;3.754;2023-02-19T12:11:35;13.50;99.90
32698;DHT22;19087;51.062;3.754;2023-02-19T12:16:53;13.70;99.90
32698;DHT22;19087;51.062;3.754;2023-02-19T12:19:56;13.80;99.90
32698;DHT22;19087;51.062;3.754;2023-02-19T12:34:40;13.40;99.90
32698;DHT22;19087;51.062;3.754;2023-02-19T12:40:17;13.10;99.90
32698;DHT22;19087;51.062;3.754;2023-02-19T12:48:11;12.80;99.90
32698;DHT22;19087;51.062;3.754;2023-02-19T12:50:39;12.90;99.90
32698;DHT22;19087;51.062;3.754;2023-02-19T12:53:31;12.80;99.90
32698;DHT22;19087;51.062;3.754;2023-02-19T12:56:03;12.80;99.90
32698;DHT22;19087;51.062;3.754;2023-02-19T12:58:45;12.90;99.90
32698;DHT22;19087;51.062;3.754;2023-02-19T13:01:17;12.80;99.90
32698;DHT22;19087;51.062;3.754;2023-02-19T13:06:36;12.80;99.90
32698;DHT22;19087;51.062;3.754;2023-02-19T13:09:17;12.60;99.90
32698;DHT22;19087;51.062;3.754;2023-02-19T13:12:00;12.60;99.90
32698;DHT22;19087;51.062;3.754;2023-02-19T13:14:35;12.60;99.90
32698;DHT22;19087;51.062;3.754;2023-02-19T13:17:49;12.40;99.90
32698;DHT22;19087;51.062;3.754;2023-02-19T13:37:52;12.30;99.90
32698;DHT22;19087;51.062;3.754;2023-02-19T13:40:39;12.30;99.90
32698;DHT22;19087;51.062;3.754;2023-02-19T13:43:36;12.30;99.90
32698;DHT22;19087;51.062;3.754;2023-02-19T13:46:08;12.20;99.90
32698;DHT22;19087;51.062;3.754;2023-02-19T13:48:37;12.00;99.90
32698;DHT22;19087;51.062;3.754;2023-02-19T14:04:22;11.60;99.90
32698;DHT22;19087;51.062;3.754;2023-02-19T14:17:45;12.30;99.90
32698;DHT22;19087;51.062;3.754;2023-02-19T14:33:15;12.30;99.90
32698;DHT22;19087;51.062;3.754;2023-02-19T14:35:43;12.30;99.90
32698;DHT22;19087;51.062;3.754;2023-02-19T14:38:42;12.20;99.90
32698;DHT22;19087;51.062;3.754;2023-02-19T14:41:11;12.00;99.90
32698;DHT22;19087;51.062;3.754;2023-02-19T14:43:42;12.00;99.90
32698;DHT22;19087;51.062;3.754;2023-02-19T14:48:49;12.00;99.90
32698;DHT22;19087;51.062;3.754;2023-02-19T14:51:37;12.00;99.90
32698;DHT22;19087;51.062;3.754;2023-02-19T14:54:17;12.10;99.90
32698;DHT22;19087;51.062;3.754;2023-02-19T14:56:47;12.10;99.90
32698;DHT22;19087;51.062;3.754;2023-02-19T14:59:24;12.10;99.90
32698;DHT22;19087;51.062;3.754;2023-02-19T15:02:11;12.30;99.90
32698;DHT22;19087;51.062;3.754;2023-02-19T15:04:39;12.30;99.90
32698;DHT22;19087;51.062;3.754;2023-02-19T15:07:07;12.30;99.90
32698;DHT22;19087;51.062;3.754;2023-02-19T15:09:42;12.40;99.90
32698;DHT22;19087;51.062;3.754;2023-02-19T15:13:15;12.40;99.90
32698;DHT22;19087;51.062;3.754;2023-02-19T15:15:28;12.30;99.90
32698;DHT22;19087;51.062;3.754;2023-02-19T15:17:57;12.30;99.90
32698;DHT22;19087;51.062;3.754;2023-02-19T15:20:27;12.40;99.90
32698;DHT22;19087;51.062;3.754;2023-02-19T15:22:53;12.30;99.90
32698;DHT22;19087;51.062;3.754;2023-02-19T15:25:21;12.20;99.90
32698;DHT22;19087;51.062;3.754;2023-02-19T15:27:48;12.20;99.90
32698;DHT22;19087;51.062;3.754;2023-02-19T15:30:25;12.20;99.90
32698;DHT22;19087;51.062;3.754;2023-02-19T15:32:57;12.00;99.90
32698;DHT22;19087;51.062;3.754;2023-02-19T15:35:27;12.10;99.90
32698;DHT22;19087;51.062;3.754;2023-02-19T15:37:53;12.10;99.90
32698;DHT22;19087;51.062;3.754;2023-02-19T15:40:25;12.10;99.90
32698;DHT22;19087;51.062;3.754;2023-02-19T15:42:54;12.30;99.90
32698;DHT22;19087;51.062;3.754;2023-02-19T15:45:24;12.30;99.90
32698;DHT22;19087;51.062;3.754;2023-02-19T15:48:07;12.50;99.90
32698;DHT22;19087;51.062;3.754;2023-02-19T15:50:46;12.40;99.90
32698;DHT22;19087;51.062;3.754;2023-02-19T15:53:23;12.40;99.90
32698;DHT22;19087;51.062;3.754;2023-02-19T15:55:55;12.30;99.90
32698;DHT22;19087;51.062;3.754;2023-02-19T16:01:23;12.20;99.90
32698;DHT22;19087;51.062;3.754;2023-02-19T16:03:52;12.20;99.90
32698;DHT22;19087;51.062;3.754;2023-02-19T16:06:19;12.20;99.90
32698;DHT22;19087;51.062;3.754;2023-02-19T16:09:15;12.20;99.90
32698;DHT22;19087;51.062;3.754;2023-02-19T16:11:54;12.20;99.90
32698;DHT22;19087;51.062;3.754;2023-02-19T16:14:29;12.00;99.90
32698;DHT22;19087;51.062;3.754;2023-02-19T16:17:05;11.90;99.90
32698;DHT22;19087;51.062;3.754;2023-02-19T16:19:47;11.90;99.90
32698;DHT22;19087;51.062;3.754;2023-02-19T16:22:18;11.90;99.90
32698;DHT22;19087;51.062;3.754;2023-02-19T16:24:47;12.00;99.90
32698;DHT22;19087;51.062;3.754;2023-02-19T16:27:34;11.90;99.90
32698;DHT22;19087;51.062;3.754;2023-02-19T16:30:02;11.80;99.90
32698;DHT22;19087;51.062;3.754;2023-02-19T16:32:28;11.70;99.90
32698;DHT22;19087;51.062;3.754;2023-02-19T16:34:54;11.80;99.90
32698;DHT22;19087;51.062;3.754;2023-02-19T16:37:39;11.70;99.90
32698;DHT22;19087;51.062;3.754;2023-02-19T16:42:35;11.60;99.90
32698;DHT22;19087;51.062;3.754;2023-02-19T16:45:05;11.60;99.90
32698;DHT22;19087;51.062;3.754;2023-02-19T16:47:36;11.50;99.90
32698;DHT22;19087;51.062;3.754;2023-02-19T16:50:11;11.50;99.90
32698;DHT22;19087;51.062;3.754;2023-02-19T16:52:58;11.60;99.90
32698;DHT22;19087;51.062;3.754;2023-02-19T16:55:25;11.60;99.90
32698;DHT22;19087;51.062;3.754;2023-02-19T16:57:51;11.60;99.90
32698;DHT22;19087;51.062;3.754;2023-02-19T17:00:21;11.50;99.90
32698;DHT22;19087;51.062;3.754;2023-02-19T17:02:50;11.60;99.90
32698;DHT22;19087;51.062;3.754;2023-02-19T17:05:18;11.60;99.90
32698;DHT22;19087;51.062;3.754;2023-02-19T17:07:44;11.60;99.90
32698;DHT22;19087;51.062;3.754;2023-02-19T17:10:16;11.50;99.90
32698;DHT22;19087;51.062;3.754;2023-02-19T17:12:43;11.50;99.90
32698;DHT22;19087;51.062;3.754;2023-02-19T17:15:11;11.40;99.90
32698;DHT22;19087;51.062;3.754;2023-02-19T17:17:37;11.20;99.90
32698;DHT22;19087;51.062;3.754;2023-02-19T17:22:37;11.20;99.90
32698;DHT22;19087;51.062;3.754;2023-02-19T17:25:03;11.10;99.90
32698;DHT22;19087;51.062;3.754;2023-02-19T17:27:29;10.80;99.90
32698;DHT22;19087;51.062;3.754;2023-02-19T17:29:55;10.80;99.90
32698;DHT22;19087;51.062;3.754;2023-02-19T17:32:21;10.90;99.90
32698;DHT22;19087;51.062;3.754;2023-02-19T17:34:47;10.70;99.90
32698;DHT22;19087;51.062;3.754;2023-02-19T17:37:14;10.60;99.90
32698;DHT22;19087;51.062;3.754;2023-02-19T17:39:40;10.60;99.90
32698;DHT22;19087;51.062;3.754;2023-02-19T17:42:07;10.50;99.90
32698;DHT22;19087;51.062;3.754;2023-02-19T17:44:33;10.40;99.90
32698;DHT22;19087;51.062;3.754;2023-02-19T17:47:00;10.40;99.90
32698;DHT22;19087;51.062;3.754;2023-02-19T17:49:26;10.50;99.90
32698;DHT22;19087;51.062;3.754;2023-02-19T17:51:53;10.50;99.90
32698;DHT22;19087;51.062;3.754;2023-02-19T17:54:18;10.60;99.90
32698;DHT22;19087;51.062;3.754;2023-02-19T17:56:45;10.40;99.90
32698;DHT22;19087;51.062;3.754;2023-02-19T17:59:12;10.10;99.90
32698;DHT22;19087;51.062;3.754;2023-02-19T18:01:38;10.00;99.90
32698;DHT22;19087;51.062;3.754;2023-02-19T18:04:04;10.20;99.90
32698;DHT22;19087;51.062;3.754;2023-02-19T18:06:29;9.90;99.90
32698;DHT22;19087;51.062;3.754;2023-02-19T18:08:56;9.90;99.90
32698;DHT22;19087;51.062;3.754;2023-02-19T18:11:24;10.00;99.90
32698;DHT22;19087;51.062;3.754;2023-02-19T18:13:50;9.90;99.90
32698;DHT22;19087;51.062;3.754;2023-02-19T18:16:16;10.00;99.90
32698;DHT22;19087;51.062;3.754;2023-02-19T18:18:44;10.00;99.90
32698;DHT22;19087;51.062;3.754;2023-02-19T18:21:11;9.90;99.90
32698;DHT22;19087;51.062;3.754;2023-02-19T18:23:38;9.70;99.90
32698;DHT22;19087;51.062;3.754;2023-02-19T18:26:06;9.70;99.90
32698;DHT22;19087;51.062;3.754;2023-02-19T18:28:33;9.70;99.90